createdAt,value
2023-05-07T00:02:10.086Z,9.10
2023-05-07T00:04:38.867Z,9.10
2023-05-07T00:07:06.727Z,9.10
2023-05-07T00:09:33.754Z,9.10
2023-05-07T00:12:00.837Z,9.10
2023-05-07T00:14:27.956Z,9.10
2023-05-07T00:16:55.077Z,9.00
2023-05-07T00:19:22.100Z,9.00
2023-05-07T00:21:49.170Z,9.00
2023-05-07T00:24:16.210Z,9.00
2023-05-07T00:26:43.267Z,9.10
2023-05-07T00:29:10.350Z,9.10
2023-05-07T00:31:37.424Z,9.10
2023-05-07T00:34:04.525Z,9.10
2023-05-07T00:36:31.621Z,9.10
2023-05-07T00:39:01.288Z,9.10
2023-05-07T00:41:28.285Z,9.10
2023-05-07T00:43:55.387Z,9.10
2023-05-07T00:46:22.743Z,9.10
2023-05-07T00:48:53.407Z,9.00
2023-05-07T00:51:21.307Z,9.10
2023-05-07T00:53:48.498Z,9.10
2023-05-07T00:56:15.654Z,9.00
2023-05-07T00:58:42.710Z,9.00
2023-05-07T01:01:09.841Z,9.00
2023-05-07T01:03:36.901Z,9.00
2023-05-07T01:06:06.052Z,8.90
2023-05-07T01:08:33.921Z,9.00
2023-05-07T01:11:01.440Z,8.90
2023-05-07T01:13:29.330Z,8.90
2023-05-07T01:15:56.446Z,8.90
2023-05-07T01:18:23.703Z,8.90
2023-05-07T01:20:51.045Z,9.00
2023-05-07T01:23:19.026Z,8.90
2023-05-07T01:25:56.094Z,8.90
2023-05-07T01:28:26.079Z,8.90
2023-05-07T01:31:02.951Z,8.90
2023-05-07T01:33:32.838Z,8.90
2023-05-07T01:36:03.251Z,8.90
2023-05-07T01:38:31.856Z,8.90
2023-05-07T01:40:59.490Z,8.90
2023-05-07T01:43:27.149Z,8.90
2023-05-07T01:45:54.804Z,9.00
2023-05-07T01:48:22.364Z,9.00
2023-05-07T01:50:50.114Z,9.00
2023-05-07T01:53:17.421Z,9.00
2023-05-07T01:55:44.502Z,9.00
2023-05-07T01:58:11.835Z,9.00
2023-05-07T02:00:38.878Z,9.00
2023-05-07T02:03:07.958Z,9.00
2023-05-07T02:05:42.551Z,9.00
2023-05-07T02:08:19.795Z,9.10
2023-05-07T02:10:46.931Z,9.00
2023-05-07T02:13:13.978Z,9.10
2023-05-07T02:15:41.034Z,9.10
2023-05-07T02:18:10.141Z,9.10
2023-05-07T02:20:38.200Z,9.10
2023-05-07T02:23:05.253Z,9.10
2023-05-07T02:25:32.317Z,9.10
2023-05-07T02:27:59.874Z,9.10
2023-05-07T02:30:47.156Z,9.10
2023-05-07T02:33:15.192Z,9.10
2023-05-07T02:35:42.449Z,9.10
2023-05-07T02:38:11.848Z,9.10
2023-05-07T02:40:40.928Z,9.10
2023-05-07T02:43:08.182Z,9.10
2023-05-07T02:45:36.152Z,9.10
2023-05-07T02:48:05.235Z,9.20
2023-05-07T02:50:33.437Z,9.20
2023-05-07T02:53:00.636Z,9.20
2023-05-07T02:55:27.823Z,9.20
2023-05-07T02:57:54.849Z,9.20
2023-05-07T03:00:22.339Z,9.20
2023-05-07T03:03:02.354Z,9.30
2023-05-07T03:05:29.777Z,9.20
2023-05-07T03:07:56.760Z,9.20
2023-05-07T03:10:23.827Z,9.20
2023-05-07T03:12:50.915Z,9.30
2023-05-07T03:15:18.803Z,9.20
2023-05-07T03:17:45.842Z,9.30
2023-05-07T03:20:13.345Z,9.30
2023-05-07T03:22:41.856Z,9.30
2023-05-07T03:25:09.731Z,9.30
2023-05-07T03:27:36.717Z,9.20
2023-05-07T03:30:04.686Z,9.20
2023-05-07T03:32:31.852Z,9.20
2023-05-07T03:34:59.164Z,9.20
2023-05-07T03:37:26.542Z,9.20
2023-05-07T03:39:53.978Z,9.20
2023-05-07T03:42:21.270Z,9.20
2023-05-07T03:44:51.253Z,9.20
2023-05-07T03:47:18.974Z,9.20
2023-05-07T03:49:47.522Z,9.20
2023-05-07T03:52:15.583Z,9.20
2023-05-07T03:54:42.831Z,9.20
2023-05-07T03:57:12.398Z,9.20
2023-05-07T03:59:40.026Z,9.20
2023-05-07T04:02:08.725Z,9.20
2023-05-07T04:04:35.852Z,9.20
2023-05-07T04:07:02.822Z,9.20
2023-05-07T04:09:31.637Z,9.20
2023-05-07T04:11:58.758Z,9.20
2023-05-07T04:14:25.846Z,9.20
2023-05-07T04:16:53.372Z,9.20
2023-05-07T04:19:20.627Z,9.20
2023-05-07T04:21:50.876Z,9.20
2023-05-07T04:24:18.062Z,9.20
2023-05-07T04:26:46.135Z,9.20
2023-05-07T04:29:13.265Z,9.20
2023-05-07T04:31:40.508Z,9.20
2023-05-07T04:34:08.482Z,9.10
2023-05-07T04:36:35.568Z,9.20
2023-05-07T04:39:08.094Z,9.10
2023-05-07T04:41:37.652Z,9.20
2023-05-07T04:44:07.000Z,9.20
2023-05-07T04:46:34.653Z,9.10
2023-05-07T04:49:01.701Z,9.10
2023-05-07T04:51:29.125Z,9.10
2023-05-07T04:53:56.429Z,9.10
2023-05-07T04:56:23.543Z,9.10
2023-05-07T04:58:50.605Z,9.10
2023-05-07T05:01:20.812Z,9.10
2023-05-07T05:03:48.456Z,9.20
2023-05-07T05:06:15.537Z,9.20
2023-05-07T05:08:42.685Z,9.20
2023-05-07T05:11:11.027Z,9.20
2023-05-07T05:13:38.261Z,9.20
2023-05-07T05:16:12.004Z,9.20
2023-05-07T05:18:39.913Z,9.20
2023-05-07T05:21:06.936Z,9.20
2023-05-07T05:23:34.490Z,9.20
2023-05-07T05:26:01.626Z,9.30
2023-05-07T05:28:32.338Z,9.20
2023-05-07T05:30:59.576Z,9.30
2023-05-07T05:33:28.557Z,9.30
2023-05-07T05:36:00.156Z,9.30
2023-05-07T05:38:27.196Z,9.30
2023-05-07T05:40:56.664Z,9.30
2023-05-07T05:43:24.242Z,9.30
2023-05-07T05:45:51.538Z,9.30
2023-05-07T05:48:18.765Z,9.30
2023-05-07T05:50:46.410Z,9.30
2023-05-07T05:53:14.789Z,9.30
2023-05-07T05:55:42.745Z,9.30
2023-05-07T05:58:10.577Z,9.30
2023-05-07T06:00:41.264Z,9.30
2023-05-07T06:03:08.430Z,9.30
2023-05-07T06:05:36.549Z,9.30
2023-05-07T06:08:03.726Z,9.30
2023-05-07T06:10:33.730Z,9.30
2023-05-07T06:13:01.425Z,9.30
2023-05-07T06:15:29.563Z,9.30
2023-05-07T06:17:58.741Z,9.30
2023-05-07T06:20:25.931Z,9.40
2023-05-07T06:22:53.030Z,9.30
2023-05-07T06:25:20.327Z,9.40
2023-05-07T06:27:47.662Z,9.40
2023-05-07T06:30:14.857Z,9.40
2023-05-07T06:32:42.481Z,9.40
2023-05-07T06:35:10.449Z,9.40
2023-05-07T06:37:40.627Z,9.40
2023-05-07T06:40:09.591Z,9.40
2023-05-07T06:42:39.407Z,9.40
2023-05-07T06:45:23.597Z,9.50
2023-05-07T06:47:50.897Z,9.50
2023-05-07T06:50:18.224Z,9.50
2023-05-07T06:52:45.777Z,9.50
2023-05-07T06:55:12.858Z,9.50
2023-05-07T06:57:40.205Z,9.50
2023-05-07T07:00:10.289Z,9.50
2023-05-07T07:02:46.315Z,9.50
2023-05-07T07:05:15.124Z,9.50
2023-05-07T07:07:42.112Z,9.50
2023-05-07T07:10:09.852Z,9.50
2023-05-07T07:12:37.047Z,9.60
2023-05-07T07:15:04.408Z,9.60
2023-05-07T07:17:31.555Z,9.60
2023-05-07T07:19:58.611Z,9.60
2023-05-07T07:22:25.591Z,9.60
2023-05-07T07:24:52.894Z,9.60
2023-05-07T07:27:19.981Z,9.60
2023-05-07T07:29:47.044Z,9.60
2023-05-07T07:32:14.093Z,9.60
2023-05-07T07:34:41.620Z,9.60
2023-05-07T07:37:09.506Z,9.60
2023-05-07T07:39:40.663Z,9.60
2023-05-07T07:42:09.074Z,9.60
2023-05-07T07:44:36.280Z,9.60
2023-05-07T07:47:07.883Z,9.60
2023-05-07T07:49:36.498Z,9.60
2023-05-07T07:52:06.476Z,9.70
2023-05-07T07:54:36.274Z,9.70
2023-05-07T07:57:04.536Z,9.70
2023-05-07T07:59:33.688Z,9.70
2023-05-07T08:02:00.819Z,9.70
2023-05-07T08:04:29.940Z,9.80
2023-05-07T08:06:58.669Z,9.80
2023-05-07T08:09:26.490Z,9.80
2023-05-07T08:11:55.001Z,9.80
2023-05-07T08:14:22.172Z,9.80
2023-05-07T08:16:49.420Z,9.80
2023-05-07T08:19:16.469Z,9.80
2023-05-07T08:21:44.083Z,9.80
2023-05-07T08:24:12.901Z,9.80
2023-05-07T08:26:41.069Z,9.80
2023-05-07T08:29:09.755Z,9.80
2023-05-07T08:31:36.959Z,9.80
2023-05-07T08:34:10.440Z,9.80
2023-05-07T08:36:42.950Z,9.80
2023-05-07T08:39:11.882Z,9.80
2023-05-07T08:41:39.049Z,9.80
2023-05-07T08:44:12.564Z,9.80
2023-05-07T08:46:41.401Z,9.80
2023-05-07T08:49:09.053Z,9.80
2023-05-07T08:51:37.111Z,9.80
2023-05-07T08:54:04.744Z,9.80
2023-05-07T08:56:34.575Z,9.80
2023-05-07T08:59:02.097Z,9.80
2023-05-07T09:01:30.553Z,9.80
2023-05-07T09:03:59.328Z,9.80
2023-05-07T09:06:28.683Z,9.80
2023-05-07T09:08:56.660Z,9.80
2023-05-07T09:11:27.035Z,9.90
2023-05-07T09:13:57.396Z,9.90
2023-05-07T09:16:26.587Z,9.90
2023-05-07T09:18:55.756Z,10.00
2023-05-07T09:21:24.188Z,10.00
2023-05-07T09:23:55.850Z,10.00
2023-05-07T09:26:29.350Z,10.10
2023-05-07T09:28:56.715Z,10.20
2023-05-07T09:31:27.217Z,10.30
2023-05-07T09:33:57.019Z,10.40
2023-05-07T09:36:28.489Z,10.40
2023-05-07T09:38:57.626Z,10.40
2023-05-07T09:41:24.825Z,10.50
2023-05-07T09:44:02.869Z,10.50
2023-05-07T09:46:39.406Z,10.50
2023-05-07T09:49:24.465Z,10.50
2023-05-07T09:51:58.118Z,10.50
2023-05-07T09:54:28.478Z,10.40
2023-05-07T09:56:57.972Z,10.40
2023-05-07T09:59:30.176Z,10.40
2023-05-07T10:02:00.703Z,10.30
2023-05-07T10:04:30.157Z,10.40
2023-05-07T10:06:57.667Z,10.30
2023-05-07T10:09:27.059Z,10.30
2023-05-07T10:11:54.896Z,10.30
2023-05-07T10:14:23.196Z,10.20
2023-05-07T10:16:51.012Z,10.20
2023-05-07T10:19:20.483Z,10.20
2023-05-07T10:22:05.820Z,10.10
2023-05-07T10:24:37.793Z,10.20
2023-05-07T10:27:13.792Z,10.20
2023-05-07T10:30:16.431Z,10.20
2023-05-07T10:32:48.365Z,10.20
2023-05-07T10:35:27.074Z,10.20
2023-05-07T10:37:55.071Z,10.20
2023-05-07T10:40:23.625Z,10.20
2023-05-07T10:43:03.685Z,10.20
2023-05-07T10:45:36.283Z,10.20
2023-05-07T10:48:28.624Z,10.20
2023-05-07T10:51:22.697Z,10.30
2023-05-07T10:54:14.066Z,10.30
2023-05-07T10:56:48.864Z,10.30
2023-05-07T10:59:24.828Z,10.30
2023-05-07T11:02:00.373Z,10.40
2023-05-07T11:04:39.992Z,10.40
2023-05-07T11:07:31.417Z,10.40
2023-05-07T11:10:05.908Z,10.40
2023-05-07T11:13:09.468Z,10.50
2023-05-07T11:15:49.414Z,10.50
2023-05-07T11:18:51.244Z,10.40
2023-05-07T11:21:41.101Z,10.40
2023-05-07T11:24:27.052Z,10.50
2023-05-07T11:27:01.451Z,10.50
2023-05-07T11:29:31.954Z,10.50
2023-05-07T11:32:07.845Z,10.40
2023-05-07T11:34:45.762Z,10.40
2023-05-07T11:37:17.716Z,10.40
2023-05-07T11:40:02.905Z,10.40
2023-05-07T11:42:30.585Z,10.40
2023-05-07T11:44:58.300Z,10.40
2023-05-07T11:47:26.447Z,10.40
2023-05-07T11:49:55.974Z,10.40
2023-05-07T11:52:24.518Z,10.40
2023-05-07T11:54:56.215Z,10.40
2023-05-07T11:57:24.725Z,10.40
2023-05-07T12:00:05.715Z,10.40
2023-05-07T12:02:43.267Z,10.40
2023-05-07T12:05:11.089Z,10.40
2023-05-07T12:07:38.577Z,10.40
2023-05-07T12:10:07.373Z,10.40
2023-05-07T12:12:43.150Z,10.30
2023-05-07T12:15:11.619Z,10.30
2023-05-07T12:17:39.381Z,10.30
2023-05-07T12:20:08.355Z,10.30
2023-05-07T12:22:35.757Z,10.30
2023-05-07T12:25:03.631Z,10.30
2023-05-07T12:27:31.718Z,10.30
2023-05-07T12:30:00.385Z,10.30
2023-05-07T12:32:27.532Z,10.30
2023-05-07T12:34:54.595Z,10.30
2023-05-07T12:37:28.576Z,10.30
2023-05-07T12:40:08.769Z,10.30
2023-05-07T12:42:41.132Z,10.30
2023-05-07T12:45:17.821Z,10.30
2023-05-07T12:47:46.421Z,10.20
2023-05-07T12:50:17.635Z,10.20
2023-05-07T12:52:46.822Z,10.30
2023-05-07T12:55:16.412Z,10.30
2023-05-07T12:57:46.568Z,10.30
2023-05-07T13:00:14.315Z,10.30
2023-05-07T13:02:45.700Z,10.30
2023-05-07T13:05:13.281Z,10.30
2023-05-07T13:07:41.804Z,10.30
2023-05-07T13:10:09.650Z,10.30
2023-05-07T13:12:37.075Z,10.30
2023-05-07T13:15:04.444Z,10.30
2023-05-07T13:17:32.435Z,10.30
2023-05-07T13:19:59.793Z,10.30
2023-05-07T13:22:26.813Z,10.30
2023-05-07T13:24:53.786Z,10.30
2023-05-07T13:27:21.688Z,10.30
2023-05-07T13:29:48.727Z,10.30
2023-05-07T13:32:16.026Z,10.40
2023-05-07T13:34:43.146Z,10.50
2023-05-07T13:37:11.621Z,10.50
2023-05-07T13:39:39.182Z,10.50
2023-05-07T13:42:06.329Z,10.50
2023-05-07T13:44:33.356Z,10.50
2023-05-07T13:47:00.352Z,10.60
2023-05-07T13:49:27.393Z,10.50
2023-05-07T13:51:54.368Z,10.60
2023-05-07T13:54:21.876Z,10.60
2023-05-07T13:56:48.976Z,10.60
2023-05-07T13:59:16.748Z,10.60
2023-05-07T14:01:43.827Z,10.60
2023-05-07T14:04:10.951Z,10.60
2023-05-07T14:06:37.939Z,10.70
2023-05-07T14:09:05.211Z,10.70
2023-05-07T14:11:33.868Z,10.70
2023-05-07T14:14:01.776Z,10.70
2023-05-07T14:16:28.879Z,10.70
2023-05-07T14:18:57.987Z,10.70
2023-05-07T14:21:25.364Z,10.70
2023-05-07T14:23:52.380Z,10.60
2023-05-07T14:26:20.130Z,10.60
2023-05-07T14:28:47.594Z,10.60
2023-05-07T14:31:14.676Z,10.60
2023-05-07T14:33:42.353Z,10.50
2023-05-07T14:36:09.491Z,10.50
2023-05-07T14:38:36.800Z,10.60
2023-05-07T14:41:04.326Z,10.60
2023-05-07T14:43:31.309Z,10.60
2023-05-07T14:45:58.302Z,10.50
2023-05-07T14:48:25.427Z,10.60
2023-05-07T14:50:52.418Z,10.50
2023-05-07T14:53:19.465Z,10.50
2023-05-07T14:55:46.820Z,10.60
2023-05-07T14:58:13.962Z,10.60
2023-05-07T15:00:40.983Z,10.60
2023-05-07T15:03:10.402Z,10.60
2023-05-07T15:05:38.828Z,10.60
2023-05-07T15:08:06.388Z,10.60
2023-05-07T15:10:41.752Z,10.50
2023-05-07T15:13:16.038Z,10.50
2023-05-07T15:15:45.162Z,10.50
2023-05-07T15:18:12.406Z,10.50
2023-05-07T15:20:40.072Z,10.50
2023-05-07T15:23:10.949Z,10.50
2023-05-07T15:25:39.160Z,10.50
2023-05-07T15:28:06.647Z,10.50
2023-05-07T15:30:34.351Z,10.50
2023-05-07T15:33:03.495Z,10.50
2023-05-07T15:35:30.954Z,10.50
2023-05-07T15:37:58.534Z,10.50
2023-05-07T15:40:25.803Z,10.40
2023-05-07T15:42:57.039Z,10.40
2023-05-07T15:45:24.893Z,10.40
2023-05-07T15:47:52.000Z,10.40
2023-05-07T15:50:19.295Z,10.40
2023-05-07T15:52:47.513Z,10.30
2023-05-07T15:55:15.168Z,10.40
2023-05-07T15:57:42.207Z,10.30
2023-05-07T16:00:12.469Z,10.20
2023-05-07T16:02:39.974Z,10.20
2023-05-07T16:05:10.613Z,10.20
2023-05-07T16:07:38.258Z,10.20
2023-05-07T16:10:06.397Z,10.20
2023-05-07T16:12:33.437Z,10.20
2023-05-07T16:15:01.047Z,10.20
2023-05-07T16:17:28.233Z,10.20
2023-05-07T16:19:55.341Z,10.20
2023-05-07T16:22:22.746Z,10.20
2023-05-07T16:24:49.735Z,10.20
2023-05-07T16:27:16.871Z,10.20
2023-05-07T16:29:43.891Z,10.20
2023-05-07T16:32:11.061Z,10.20
2023-05-07T16:34:38.096Z,10.20
2023-05-07T16:37:05.758Z,10.20
2023-05-07T16:39:32.820Z,10.20
2023-05-07T16:41:59.828Z,10.20
2023-05-07T16:44:26.863Z,10.20
2023-05-07T16:46:53.844Z,10.20
2023-05-07T16:49:20.881Z,10.20
2023-05-07T16:51:47.975Z,10.20
2023-05-07T16:54:14.935Z,10.10
2023-05-07T16:56:42.911Z,10.10
2023-05-07T16:59:10.020Z,10.10
2023-05-07T17:01:37.111Z,10.10
2023-05-07T17:04:04.454Z,10.10
2023-05-07T17:06:31.947Z,10.00
2023-05-07T17:08:58.952Z,10.00
2023-05-07T17:11:31.039Z,10.00
2023-05-07T17:13:58.107Z,10.00
2023-05-07T17:16:25.248Z,10.00
2023-05-07T17:18:53.148Z,9.90
2023-05-07T17:21:20.170Z,9.90
2023-05-07T17:23:47.196Z,9.90
2023-05-07T17:26:17.684Z,9.90
2023-05-07T17:28:44.728Z,9.90
2023-05-07T17:31:11.901Z,9.80
2023-05-07T17:33:39.076Z,9.80
2023-05-07T17:36:08.600Z,9.80
2023-05-07T17:38:35.716Z,9.90
2023-05-07T17:41:03.016Z,9.90
2023-05-07T17:43:30.070Z,9.90
2023-05-07T17:45:57.091Z,9.90
2023-05-07T17:48:27.289Z,9.90
2023-05-07T17:50:54.344Z,9.90
2023-05-07T17:53:24.222Z,9.90
2023-05-07T17:55:52.677Z,9.90
2023-05-07T17:58:19.678Z,9.90
2023-05-07T18:00:46.647Z,9.90
2023-05-07T18:03:13.677Z,9.80
2023-05-07T18:05:41.006Z,9.80
2023-05-07T18:08:08.185Z,9.80
2023-05-07T18:10:35.417Z,9.80
2023-05-07T18:13:02.428Z,9.80
2023-05-07T18:15:29.526Z,9.80
2023-05-07T18:17:56.616Z,9.80
2023-05-07T18:20:23.815Z,9.80
2023-05-07T18:22:51.706Z,9.80
2023-05-07T18:25:18.868Z,9.80
2023-05-07T18:27:45.870Z,9.70
2023-05-07T18:30:13.397Z,9.70
2023-05-07T18:32:40.744Z,9.70
2023-05-07T18:35:08.291Z,9.70
2023-05-07T18:37:35.516Z,9.70
2023-05-07T18:43:49.898Z,9.70
2023-05-07T18:46:16.881Z,9.70
2023-05-07T18:48:43.948Z,9.70
2023-05-07T18:51:12.740Z,9.70
2023-05-07T18:53:40.409Z,9.70
2023-05-07T18:56:08.835Z,9.70
2023-05-07T18:58:36.083Z,9.70
2023-05-07T19:01:08.250Z,9.70
2023-05-07T19:03:36.128Z,9.70
2023-05-07T19:06:03.368Z,9.70
2023-05-07T19:08:30.489Z,9.60
2023-05-07T19:10:58.129Z,9.60
2023-05-07T19:13:27.536Z,9.60
2023-05-07T19:15:55.159Z,9.60
2023-05-07T19:18:22.443Z,9.60
2023-05-07T19:20:52.059Z,9.60
2023-05-07T19:23:21.676Z,9.60
2023-05-07T19:25:49.053Z,9.60
2023-05-07T19:28:16.877Z,9.50
2023-05-07T19:35:02.767Z,9.50
2023-05-07T19:37:30.255Z,9.50
2023-05-07T19:39:57.443Z,9.50
2023-05-07T19:42:24.489Z,9.50
2023-05-07T19:44:51.478Z,9.50
2023-05-07T19:47:18.798Z,9.50
2023-05-07T19:49:45.874Z,9.50
2023-05-07T19:52:12.930Z,9.40
2023-05-07T19:54:39.964Z,9.50
2023-05-07T19:57:07.039Z,9.40
2023-05-07T19:59:34.527Z,9.40
2023-05-07T20:02:01.592Z,9.40
2023-05-07T20:04:32.997Z,9.40
2023-05-07T20:07:00.169Z,9.40
2023-05-07T20:09:27.183Z,9.40
2023-05-07T20:11:54.245Z,9.40
2023-05-07T20:14:21.334Z,9.40
2023-05-07T20:16:48.564Z,9.30
2023-05-07T20:19:15.589Z,9.40
2023-05-07T20:21:42.736Z,9.40
2023-05-07T20:24:09.756Z,9.30
2023-05-07T20:26:36.966Z,9.30
2023-05-07T20:29:04.308Z,9.30
2023-05-07T20:31:32.421Z,9.40
2023-05-07T20:33:59.685Z,9.40
2023-05-07T20:36:26.939Z,9.30
2023-05-07T20:38:54.289Z,9.30
2023-05-07T20:41:21.904Z,9.30
2023-05-07T20:43:48.964Z,9.30
2023-05-07T20:46:16.011Z,9.30
2023-05-07T20:48:43.363Z,9.30
2023-05-07T20:51:13.665Z,9.30
2023-05-07T20:53:40.880Z,9.30
2023-05-07T20:56:07.872Z,9.30
2023-05-07T20:58:34.889Z,9.30
2023-05-07T21:01:04.129Z,9.30
2023-05-07T21:03:31.342Z,9.30
2023-05-07T21:06:00.495Z,9.30
2023-05-07T21:08:27.739Z,9.30
2023-05-07T21:10:55.346Z,9.30
2023-05-07T21:13:23.183Z,9.30
2023-05-07T21:15:50.705Z,9.30
2023-05-07T21:18:19.035Z,9.30
2023-05-07T21:20:46.343Z,9.30
2023-05-07T21:23:13.317Z,9.30
2023-05-07T21:25:41.477Z,9.30
2023-05-07T21:28:09.487Z,9.30
2023-05-07T21:30:37.244Z,9.40
2023-05-07T21:33:06.940Z,9.30
2023-05-07T21:35:35.931Z,9.40
2023-05-07T21:38:03.280Z,9.30
2023-05-07T21:40:30.395Z,9.30
2023-05-07T21:42:58.939Z,9.30
2023-05-07T21:45:26.293Z,9.30
2023-05-07T21:47:53.392Z,9.30
2023-05-07T21:50:20.738Z,9.30
2023-05-07T21:52:48.391Z,9.30
2023-05-07T21:55:17.453Z,9.30
2023-05-07T21:57:50.890Z,9.30
2023-05-07T22:00:25.056Z,9.30
2023-05-07T22:02:52.194Z,9.30
2023-05-07T22:05:19.361Z,9.20
2023-05-07T22:07:46.365Z,9.20
2023-05-07T22:10:13.705Z,9.20
2023-05-07T22:12:44.003Z,9.20
2023-05-07T22:15:11.499Z,9.20
2023-05-07T22:17:38.489Z,9.20
2023-05-07T22:20:06.555Z,9.20
2023-05-07T22:22:33.546Z,9.20
2023-05-07T22:25:00.509Z,9.20
2023-05-07T22:27:27.497Z,9.20
2023-05-07T22:29:56.105Z,9.20
2023-05-07T22:32:23.082Z,9.20
2023-05-07T22:34:50.061Z,9.10
2023-05-07T22:37:17.046Z,9.10
2023-05-07T22:39:44.046Z,9.20
2023-05-07T22:42:11.005Z,9.10
2023-05-07T22:44:38.064Z,9.20
2023-05-07T22:47:05.093Z,9.10
2023-05-07T22:49:34.966Z,9.10
2023-05-07T22:52:02.351Z,9.10
2023-05-07T22:54:31.398Z,9.10
2023-05-07T22:56:59.357Z,9.00
2023-05-07T22:59:26.522Z,9.00
2023-05-07T23:04:20.879Z,9.10
2023-05-07T23:06:48.067Z,9.10
2023-05-07T23:09:15.589Z,9.10
2023-05-07T23:11:43.258Z,9.10
2023-05-07T23:14:10.322Z,9.00
2023-05-07T23:16:37.351Z,9.00
2023-05-07T23:19:04.366Z,9.10
2023-05-07T23:21:31.380Z,9.00
2023-05-07T23:23:58.449Z,9.00
2023-05-07T23:26:31.256Z,9.00
2023-05-07T23:28:58.364Z,9.00
2023-05-07T23:31:25.414Z,8.90
2023-05-07T23:33:52.445Z,8.90
2023-05-07T23:36:19.515Z,8.90
2023-05-07T23:38:46.554Z,8.90
2023-05-07T23:41:14.876Z,8.90
2023-05-07T23:43:41.898Z,8.90
2023-05-07T23:46:08.929Z,8.90
2023-05-07T23:48:36.003Z,9.00
2023-05-07T23:51:03.434Z,8.90
2023-05-07T23:53:30.713Z,8.90
2023-05-07T23:55:57.814Z,9.00
2023-05-07T23:58:25.321Z,9.00
